Terminal Aerodrome Forecast
Issued by NWS

Home | Current Version | Previous Version | Text Only | Print | Product List | Glossary On
Versions: 1 2 3 4 5 6 7 8 9 10 11 12 13 14 15
000
FTUS43 KDTX 251720
TAFMBS
TAF
KMBS 251720Z 2518/2618 17011KT P6SM SCT035 SCT090
      TEMPO 2518/2520 BKN035
     FM260200 15007KT P6SM SCT090 BKN150
     FM260800 16005KT 6SM BR BKN060
     FM261300 17012KT P6SM SCT060 BKN100
     FM261700 18016G26KT P6SM SCT100=

USA.gov is the U.S. government's official web portal to all federal, state and local government web resources and services.